sensor_id;sensor_type;location;lat;lon;timestamp;pressure;altitude;pressure_sealevel;temperature;humidity
6389;BME280;3227;42.654;23.360;2023-02-10T00:00:01;96178.53;;;-1.77;53.43
6389;BME280;3227;42.654;23.360;2023-02-10T00:02:28;96179.06;;;-1.81;53.84
6389;BME280;3227;42.654;23.360;2023-02-10T00:04:55;96183.34;;;-1.80;54.24
6389;BME280;3227;42.654;23.360;2023-02-10T00:07:23;96180.63;;;-1.83;53.97
6389;BME280;3227;42.654;23.360;2023-02-10T00:09:49;96179.06;;;-1.81;54.59
6389;BME280;3227;42.654;23.360;2023-02-10T00:12:16;96184.78;;;-1.83;54.16
6389;BME280;3227;42.654;23.360;2023-02-10T00:14:44;96181.16;;;-1.75;54.23
6389;BME280;3227;42.654;23.360;2023-02-10T00:17:11;96173.09;;;-1.83;54.37
6389;BME280;3227;42.654;23.360;2023-02-10T00:19:42;96184.97;;;-1.80;54.59
6389;BME280;3227;42.654;23.360;2023-02-10T00:22:09;96175.47;;;-1.84;55.04
6389;BME280;3227;42.654;23.360;2023-02-10T00:24:36;96169.69;;;-1.83;54.88
6389;BME280;3227;42.654;23.360;2023-02-10T00:27:03;96177.13;;;-1.85;54.74
6389;BME280;3227;42.654;23.360;2023-02-10T00:29:30;96177.56;;;-1.90;54.91
6389;BME280;3227;42.654;23.360;2023-02-10T00:31:58;96174.94;;;-1.92;54.55
6389;BME280;3227;42.654;23.360;2023-02-10T00:34:25;96170.34;;;-1.86;54.04
6389;BME280;3227;42.654;23.360;2023-02-10T00:36:53;96049.19;;;-2.52;54.13
6389;BME280;3227;42.654;23.360;2023-02-10T00:39:20;96171.34;;;-1.84;54.31
6389;BME280;3227;42.654;23.360;2023-02-10T00:41:47;96133.72;;;-2.06;54.50
6389;BME280;3227;42.654;23.360;2023-02-10T00:44:13;96155.03;;;-1.89;54.66
6389;BME280;3227;42.654;23.360;2023-02-10T00:46:40;96158.00;;;-1.83;54.07
6389;BME280;3227;42.654;23.360;2023-02-10T00:49:10;96151.31;;;-1.94;54.58
6389;BME280;3227;42.654;23.360;2023-02-10T00:51:37;96149.13;;;-2.01;54.58
6389;BME280;3227;42.654;23.360;2023-02-10T00:54:04;96145.09;;;-1.99;54.86
6389;BME280;3227;42.654;23.360;2023-02-10T00:56:30;96149.56;;;-1.95;55.22
6389;BME280;3227;42.654;23.360;2023-02-10T00:58:57;96153.06;;;-1.93;55.28
6389;BME280;3227;42.654;23.360;2023-02-10T01:01:24;96145.19;;;-1.98;54.80
6389;BME280;3227;42.654;23.360;2023-02-10T01:03:51;96141.59;;;-2.01;55.21
6389;BME280;3227;42.654;23.360;2023-02-10T01:06:19;96138.09;;;-2.03;54.76
6389;BME280;3227;42.654;23.360;2023-02-10T01:08:46;96138.22;;;-2.02;54.43
6389;BME280;3227;42.654;23.360;2023-02-10T01:11:13;96143.25;;;-1.90;54.47
6389;BME280;3227;42.654;23.360;2023-02-10T01:13:41;96141.84;;;-1.98;54.32
6389;BME280;3227;42.654;23.360;2023-02-10T01:16:10;96143.88;;;-2.04;54.66
6389;BME280;3227;42.654;23.360;2023-02-10T01:18:44;96132.75;;;-2.08;55.01
6389;BME280;3227;42.654;23.360;2023-02-10T01:21:13;96134.91;;;-2.12;55.28
6389;BME280;3227;42.654;23.360;2023-02-10T01:23:42;96070.44;;;-2.47;55.42
6389;BME280;3227;42.654;23.360;2023-02-10T01:26:09;96130.75;;;-2.12;55.65
6389;BME280;3227;42.654;23.360;2023-02-10T01:28:36;96121.72;;;-2.10;55.43
6389;BME280;3227;42.654;23.360;2023-02-10T01:31:07;96124.44;;;-2.18;54.55
6389;BME280;3227;42.654;23.360;2023-02-10T01:33:33;96119.97;;;-2.22;55.38
6389;BME280;3227;42.654;23.360;2023-02-10T01:36:03;96115.34;;;-2.28;55.55
6389;BME280;3227;42.654;23.360;2023-02-10T01:38:31;96116.97;;;-2.28;55.44
6389;BME280;3227;42.654;23.360;2023-02-10T01:40:59;96120.16;;;-2.31;54.99
6389;BME280;3227;42.654;23.360;2023-02-10T01:43:26;96060.84;;;-2.52;54.96
6389;BME280;3227;42.654;23.360;2023-02-10T01:45:53;96116.13;;;-2.17;54.43
6389;BME280;3227;42.654;23.360;2023-02-10T01:48:20;96110.47;;;-2.15;54.31
6389;BME280;3227;42.654;23.360;2023-02-10T01:50:51;96108.03;;;-2.13;54.22
6389;BME280;3227;42.654;23.360;2023-02-10T01:53:18;96108.16;;;-2.12;54.21
6389;BME280;3227;42.654;23.360;2023-02-10T01:55:50;96105.84;;;-2.20;53.97
6389;BME280;3227;42.654;23.360;2023-02-10T01:58:22;96082.16;;;-2.36;54.29
6389;BME280;3227;42.654;23.360;2023-02-10T02:00:50;96095.81;;;-2.20;54.20
6389;BME280;3227;42.654;23.360;2023-02-10T02:03:17;96097.69;;;-2.18;53.82
6389;BME280;3227;42.654;23.360;2023-02-10T02:05:44;96093.19;;;-2.22;53.92
6389;BME280;3227;42.654;23.360;2023-02-10T02:08:13;96084.25;;;-2.18;54.32
6389;BME280;3227;42.654;23.360;2023-02-10T02:11:21;96085.09;;;-2.30;53.94
6389;BME280;3227;42.654;23.360;2023-02-10T02:13:59;96080.84;;;-2.31;54.26
6389;BME280;3227;42.654;23.360;2023-02-10T02:16:43;96057.81;;;-2.48;54.13
6389;BME280;3227;42.654;23.360;2023-02-10T02:19:22;96080.28;;;-2.38;53.51
6389;BME280;3227;42.654;23.360;2023-02-10T02:25:01;96077.00;;;-2.37;54.08
6389;BME280;3227;42.654;23.360;2023-02-10T02:27:47;96076.25;;;-2.36;53.46
6389;BME280;3227;42.654;23.360;2023-02-10T02:33:19;96065.97;;;-2.51;54.06
6389;BME280;3227;42.654;23.360;2023-02-10T02:35:52;96069.25;;;-2.52;54.51
6389;BME280;3227;42.654;23.360;2023-02-10T02:38:20;96069.38;;;-2.50;54.40
6389;BME280;3227;42.654;23.360;2023-02-10T02:40:47;96072.44;;;-2.43;54.48
6389;BME280;3227;42.654;23.360;2023-02-10T02:43:14;96071.78;;;-2.40;54.01
6389;BME280;3227;42.654;23.360;2023-02-10T02:45:46;96078.00;;;-2.35;54.15
6389;BME280;3227;42.654;23.360;2023-02-10T02:48:40;96071.59;;;-2.32;53.60
6389;BME280;3227;42.654;23.360;2023-02-10T02:51:19;96071.91;;;-2.27;53.83
6389;BME280;3227;42.654;23.360;2023-02-10T02:53:55;96031.16;;;-2.58;53.97
6389;BME280;3227;42.654;23.360;2023-02-10T02:56:32;96070.03;;;-2.41;54.40
6389;BME280;3227;42.654;23.360;2023-02-10T02:59:04;96074.03;;;-2.55;54.21
6389;BME280;3227;42.654;23.360;2023-02-10T03:01:36;96071.53;;;-2.55;54.67
6389;BME280;3227;42.654;23.360;2023-02-10T03:04:06;96066.81;;;-2.62;54.35
6389;BME280;3227;42.654;23.360;2023-02-10T03:06:33;96057.75;;;-2.72;54.89
6389;BME280;3227;42.654;23.360;2023-02-10T03:09:01;96054.03;;;-2.77;55.19
6389;BME280;3227;42.654;23.360;2023-02-10T03:11:27;96024.06;;;-3.09;55.37
6389;BME280;3227;42.654;23.360;2023-02-10T03:13:55;96052.47;;;-2.86;55.64
6389;BME280;3227;42.654;23.360;2023-02-10T03:16:22;96057.97;;;-2.80;55.93
6389;BME280;3227;42.654;23.360;2023-02-10T03:19:15;96060.59;;;-2.67;55.18
6389;BME280;3227;42.654;23.360;2023-02-10T03:21:41;96060.84;;;-2.64;55.38
6389;BME280;3227;42.654;23.360;2023-02-10T03:24:08;96071.63;;;-2.65;55.30
6389;BME280;3227;42.654;23.360;2023-02-10T03:26:36;96072.59;;;-2.63;56.13
6389;BME280;3227;42.654;23.360;2023-02-10T03:29:03;96077.41;;;-2.66;55.61
6389;BME280;3227;42.654;23.360;2023-02-10T03:31:30;96064.41;;;-2.72;55.85
6389;BME280;3227;42.654;23.360;2023-02-10T03:33:57;96076.09;;;-2.73;55.80
6389;BME280;3227;42.654;23.360;2023-02-10T03:36:26;96069.66;;;-2.69;55.73
6389;BME280;3227;42.654;23.360;2023-02-10T03:38:52;96072.59;;;-2.75;56.00
6389;BME280;3227;42.654;23.360;2023-02-10T03:41:19;96055.78;;;-2.76;56.42
6389;BME280;3227;42.654;23.360;2023-02-10T03:43:46;96060.56;;;-2.79;56.64
6389;BME280;3227;42.654;23.360;2023-02-10T03:46:13;96053.72;;;-2.81;57.02
6389;BME280;3227;42.654;23.360;2023-02-10T03:48:39;96046.56;;;-2.87;56.81
6389;BME280;3227;42.654;23.360;2023-02-10T03:51:07;96050.69;;;-2.99;57.00
6389;BME280;3227;42.654;23.360;2023-02-10T03:53:35;96053.72;;;-3.03;57.17
6389;BME280;3227;42.654;23.360;2023-02-10T03:56:03;96052.09;;;-3.02;57.36
6389;BME280;3227;42.654;23.360;2023-02-10T03:58:30;96044.56;;;-3.02;57.87
6389;BME280;3227;42.654;23.360;2023-02-10T04:00:57;96041.38;;;-3.12;57.67
6389;BME280;3227;42.654;23.360;2023-02-10T04:03:24;96050.63;;;-3.11;57.93
6389;BME280;3227;42.654;23.360;2023-02-10T04:05:50;96035.28;;;-3.15;58.09
6389;BME280;3227;42.654;23.360;2023-02-10T04:08:17;96043.25;;;-3.09;58.53
6389;BME280;3227;42.654;23.360;2023-02-10T04:10:46;96039.53;;;-3.14;59.05
6389;BME280;3227;42.654;23.360;2023-02-10T04:13:12;96047.06;;;-3.14;59.37
6389;BME280;3227;42.654;23.360;2023-02-10T04:15:39;96033.28;;;-3.19;59.90
6389;BME280;3227;42.654;23.360;2023-02-10T04:18:06;95998.84;;;-3.43;60.08
6389;BME280;3227;42.654;23.360;2023-02-10T04:20:33;96021.28;;;-3.23;59.75
6389;BME280;3227;42.654;23.360;2023-02-10T04:22:59;96033.41;;;-3.18;59.49
6389;BME280;3227;42.654;23.360;2023-02-10T04:25:26;96048.06;;;-3.00;59.47
6389;BME280;3227;42.654;23.360;2023-02-10T04:27:54;96046.31;;;-3.01;59.75
6389;BME280;3227;42.654;23.360;2023-02-10T04:30:21;96045.31;;;-3.03;59.30
6389;BME280;3227;42.654;23.360;2023-02-10T04:32:48;96042.59;;;-3.07;59.76
6389;BME280;3227;42.654;23.360;2023-02-10T04:35:15;95969.31;;;-3.48;60.41
6389;BME280;3227;42.654;23.360;2023-02-10T04:37:42;96048.38;;;-3.08;60.32
6389;BME280;3227;42.654;23.360;2023-02-10T04:40:09;96046.31;;;-3.01;60.67
6389;BME280;3227;42.654;23.360;2023-02-10T04:42:36;96051.75;;;-3.07;60.08
6389;BME280;3227;42.654;23.360;2023-02-10T04:45:06;96052.94;;;-3.14;60.64
6389;BME280;3227;42.654;23.360;2023-02-10T04:47:32;96006.72;;;-3.39;60.55
6389;BME280;3227;42.654;23.360;2023-02-10T04:49:59;96039.72;;;-3.23;60.73
6389;BME280;3227;42.654;23.360;2023-02-10T04:52:26;96049.44;;;-3.16;60.93
6389;BME280;3227;42.654;23.360;2023-02-10T04:54:53;96057.47;;;-3.20;60.76
6389;BME280;3227;42.654;23.360;2023-02-10T04:57:20;96057.13;;;-3.24;60.77
6389;BME280;3227;42.654;23.360;2023-02-10T04:59:46;96053.75;;;-3.25;60.51
6389;BME280;3227;42.654;23.360;2023-02-10T05:02:15;96014.06;;;-3.52;60.47
6389;BME280;3227;42.654;23.360;2023-02-10T05:04:41;95996.38;;;-3.65;60.75
6389;BME280;3227;42.654;23.360;2023-02-10T05:07:08;96053.81;;;-3.35;60.76
6389;BME280;3227;42.654;23.360;2023-02-10T05:09:35;96052.72;;;-3.38;60.84
6389;BME280;3227;42.654;23.360;2023-02-10T05:12:02;96053.09;;;-3.44;60.85
6389;BME280;3227;42.654;23.360;2023-02-10T05:14:29;96063.72;;;-3.36;60.93
6389;BME280;3227;42.654;23.360;2023-02-10T05:16:55;96067.22;;;-3.34;60.43
6389;BME280;3227;42.654;23.360;2023-02-10T05:19:24;96071.31;;;-3.25;60.73
6389;BME280;3227;42.654;23.360;2023-02-10T05:21:50;96076.31;;;-3.25;60.65
6389;BME280;3227;42.654;23.360;2023-02-10T05:24:17;96083.41;;;-3.19;60.10
6389;BME280;3227;42.654;23.360;2023-02-10T05:26:44;96084.28;;;-3.19;61.14
6389;BME280;3227;42.654;23.360;2023-02-10T05:29:11;96064.81;;;-3.33;60.13
6389;BME280;3227;42.654;23.360;2023-02-10T05:31:37;95985.09;;;-3.92;60.42
6389;BME280;3227;42.654;23.360;2023-02-10T05:34:04;96104.38;;;-3.29;60.81
6389;BME280;3227;42.654;23.360;2023-02-10T05:36:32;96096.50;;;-3.23;60.89
6389;BME280;3227;42.654;23.360;2023-02-10T05:38:59;96073.84;;;-3.35;60.65
6389;BME280;3227;42.654;23.360;2023-02-10T05:41:44;96047.63;;;-3.50;60.53
6389;BME280;3227;42.654;23.360;2023-02-10T05:44:10;96114.31;;;-3.09;59.49
6389;BME280;3227;42.654;23.360;2023-02-10T05:46:39;96113.78;;;-3.04;59.69
6389;BME280;3227;42.654;23.360;2023-02-10T05:49:11;96112.91;;;-2.83;58.49
6389;BME280;3227;42.654;23.360;2023-02-10T05:51:39;96121.44;;;-2.70;57.43
6389;BME280;3227;42.654;23.360;2023-02-10T05:54:06;96061.97;;;-3.16;57.52
6389;BME280;3227;42.654;23.360;2023-02-10T05:56:33;96116.78;;;-2.98;56.98
6389;BME280;3227;42.654;23.360;2023-02-10T05:59:06;96110.50;;;-3.03;57.66
6389;BME280;3227;42.654;23.360;2023-02-10T06:01:33;96074.84;;;-3.33;57.36
6389;BME280;3227;42.654;23.360;2023-02-10T06:04:00;96115.44;;;-3.05;57.24
6389;BME280;3227;42.654;23.360;2023-02-10T06:06:27;96116.81;;;-2.87;57.40
6389;BME280;3227;42.654;23.360;2023-02-10T06:08:55;96128.72;;;-2.51;56.88
6389;BME280;3227;42.654;23.360;2023-02-10T06:11:22;96127.69;;;-2.31;55.06
6389;BME280;3227;42.654;23.360;2023-02-10T06:13:49;96114.59;;;-2.27;55.38
6389;BME280;3227;42.654;23.360;2023-02-10T06:16:15;96070.28;;;-2.26;54.88
6389;BME280;3227;42.654;23.360;2023-02-10T06:18:42;96146.53;;;-1.44;53.84
6389;BME280;3227;42.654;23.360;2023-02-10T06:21:12;96110.88;;;-1.27;52.94
6389;BME280;3227;42.654;23.360;2023-02-10T06:23:39;96136.34;;;-0.86;52.53
6389;BME280;3227;42.654;23.360;2023-02-10T06:26:07;96132.97;;;-0.62;51.70
6389;BME280;3227;42.654;23.360;2023-02-10T06:28:34;96099.72;;;-0.69;51.73
6389;BME280;3227;42.654;23.360;2023-02-10T06:31:01;96148.59;;;-0.16;50.89
6389;BME280;3227;42.654;23.360;2023-02-10T06:33:28;96147.31;;;0.02;50.21
6389;BME280;3227;42.654;23.360;2023-02-10T06:35:55;96147.63;;;0.07;49.20
6389;BME280;3227;42.654;23.360;2023-02-10T06:38:22;96149.16;;;0.18;49.73
6389;BME280;3227;42.654;23.360;2023-02-10T06:40:48;96133.88;;;0.28;49.17
6389;BME280;3227;42.654;23.360;2023-02-10T06:43:16;96149.00;;;0.54;48.56
6389;BME280;3227;42.654;23.360;2023-02-10T06:45:43;96150.56;;;0.65;48.42
6389;BME280;3227;42.654;23.360;2023-02-10T06:48:10;96152.00;;;0.75;48.23
6389;BME280;3227;42.654;23.360;2023-02-10T06:50:37;96152.38;;;0.68;47.56
6389;BME280;3227;42.654;23.360;2023-02-10T06:53:04;96128.44;;;0.35;47.46
6389;BME280;3227;42.654;23.360;2023-02-10T06:55:31;96161.22;;;0.48;48.06
6389;BME280;3227;42.654;23.360;2023-02-10T06:57:58;96142.97;;;0.26;47.94
6389;BME280;3227;42.654;23.360;2023-02-10T07:00:27;96168.50;;;0.44;47.47
6389;BME280;3227;42.654;23.360;2023-02-10T07:02:54;96162.41;;;0.40;47.73
6389;BME280;3227;42.654;23.360;2023-02-10T07:05:21;96168.41;;;0.68;48.63
6389;BME280;3227;42.654;23.360;2023-02-10T07:07:48;96157.72;;;0.99;48.38
6389;BME280;3227;42.654;23.360;2023-02-10T07:10:16;96157.88;;;1.43;51.43
6389;BME280;3227;42.654;23.360;2023-02-10T07:12:43;96149.94;;;1.65;46.88
6389;BME280;3227;42.654;23.360;2023-02-10T07:15:12;96134.16;;;1.41;45.96
6389;BME280;3227;42.654;23.360;2023-02-10T07:17:40;96148.69;;;1.58;51.49
6389;BME280;3227;42.654;23.360;2023-02-10T07:20:08;96035.59;;;1.39;51.66
6389;BME280;3227;42.654;23.360;2023-02-10T07:22:35;96153.66;;;2.43;48.47
6389;BME280;3227;42.654;23.360;2023-02-10T07:25:02;96145.06;;;2.56;47.58
6389;BME280;3227;42.654;23.360;2023-02-10T07:27:29;96145.78;;;2.68;47.63
6389;BME280;3227;42.654;23.360;2023-02-10T07:29:56;96148.53;;;2.87;46.25
6389;BME280;3227;42.654;23.360;2023-02-10T07:32:22;96153.09;;;3.09;48.40
6389;BME280;3227;42.654;23.360;2023-02-10T07:34:51;96145.75;;;3.30;47.51
6389;BME280;3227;42.654;23.360;2023-02-10T07:37:17;96148.25;;;3.61;45.42
6389;BME280;3227;42.654;23.360;2023-02-10T07:39:44;96126.63;;;3.51;43.40
6389;BME280;3227;42.654;23.360;2023-02-10T07:42:11;96139.13;;;3.64;45.73
6389;BME280;3227;42.654;23.360;2023-02-10T07:44:38;96076.44;;;3.28;46.46
6389;BME280;3227;42.654;23.360;2023-02-10T07:47:05;96148.78;;;3.55;43.51
6389;BME280;3227;42.654;23.360;2023-02-10T07:49:32;96143.56;;;3.52;46.01
6389;BME280;3227;42.654;23.360;2023-02-10T07:52:00;96142.50;;;3.16;43.41
6389;BME280;3227;42.654;23.360;2023-02-10T07:54:27;96143.56;;;2.74;43.99
6389;BME280;3227;42.654;23.360;2023-02-10T07:56:56;96151.81;;;2.41;44.34
6389;BME280;3227;42.654;23.360;2023-02-10T07:59:23;96091.22;;;1.83;44.50
6389;BME280;3227;42.654;23.360;2023-02-10T08:01:50;96103.06;;;1.55;44.59
6389;BME280;3227;42.654;23.360;2023-02-10T08:04:17;96154.25;;;1.80;44.62
6389;BME280;3227;42.654;23.360;2023-02-10T08:06:44;96104.75;;;1.41;44.55
6389;BME280;3227;42.654;23.360;2023-02-10T08:09:12;96160.44;;;1.58;45.53
6389;BME280;3227;42.654;23.360;2023-02-10T08:11:42;96154.25;;;1.95;47.07
6389;BME280;3227;42.654;23.360;2023-02-10T08:14:09;96112.75;;;2.06;44.94
6389;BME280;3227;42.654;23.360;2023-02-10T08:16:36;96159.56;;;2.58;44.46
6389;BME280;3227;42.654;23.360;2023-02-10T08:19:02;96135.72;;;2.39;43.26
6389;BME280;3227;42.654;23.360;2023-02-10T08:21:29;96148.94;;;2.35;43.50
6389;BME280;3227;42.654;23.360;2023-02-10T08:23:56;96145.97;;;2.27;45.22
6389;BME280;3227;42.654;23.360;2023-02-10T08:26:24;96149.66;;;2.47;44.74
6389;BME280;3227;42.654;23.360;2023-02-10T08:28:51;96115.03;;;2.16;43.04
6389;BME280;3227;42.654;23.360;2023-02-10T08:31:20;96113.53;;;2.35;44.17
6389;BME280;3227;42.654;23.360;2023-02-10T08:33:48;96135.44;;;2.34;42.29
6389;BME280;3227;42.654;23.360;2023-02-10T08:36:17;96154.94;;;2.66;44.66
6389;BME280;3227;42.654;23.360;2023-02-10T08:38:45;96121.97;;;2.95;43.89
6389;BME280;3227;42.654;23.360;2023-02-10T08:41:12;96143.06;;;3.27;42.36
6389;BME280;3227;42.654;23.360;2023-02-10T08:43:41;96074.66;;;2.94;42.80
6389;BME280;3227;42.654;23.360;2023-02-10T08:46:08;96141.81;;;3.35;42.13
6389;BME280;3227;42.654;23.360;2023-02-10T08:48:35;96140.06;;;3.34;41.82
6389;BME280;3227;42.654;23.360;2023-02-10T08:51:06;96122.25;;;3.32;42.46
6389;BME280;3227;42.654;23.360;2023-02-10T08:53:33;96140.56;;;3.59;41.62
6389;BME280;3227;42.654;23.360;2023-02-10T08:56:01;96140.75;;;3.62;42.67
6389;BME280;3227;42.654;23.360;2023-02-10T08:58:29;96138.59;;;3.70;41.35
6389;BME280;3227;42.654;23.360;2023-02-10T09:00:57;96115.53;;;3.65;41.74
6389;BME280;3227;42.654;23.360;2023-02-10T09:03:24;96138.63;;;3.88;40.52
6389;BME280;3227;42.654;23.360;2023-02-10T09:05:52;96132.22;;;3.94;41.40
6389;BME280;3227;42.654;23.360;2023-02-10T09:08:19;96128.81;;;3.94;41.04
6389;BME280;3227;42.654;23.360;2023-02-10T09:10:46;96131.44;;;3.79;41.07
6389;BME280;3227;42.654;23.360;2023-02-10T09:13:13;96084.34;;;3.50;42.38
6389;BME280;3227;42.654;23.360;2023-02-10T09:15:41;96122.03;;;3.76;41.06
6389;BME280;3227;42.654;23.360;2023-02-10T09:18:10;96122.81;;;3.59;40.57
6389;BME280;3227;42.654;23.360;2023-02-10T09:20:37;96124.41;;;3.41;39.99
6389;BME280;3227;42.654;23.360;2023-02-10T09:23:04;96122.50;;;3.21;40.50
6389;BME280;3227;42.654;23.360;2023-02-10T09:25:31;96123.91;;;3.32;42.95
6389;BME280;3227;42.654;23.360;2023-02-10T09:27:58;96117.56;;;3.24;40.75
6389;BME280;3227;42.654;23.360;2023-02-10T09:30:26;96119.31;;;3.25;42.84
6389;BME280;3227;42.654;23.360;2023-02-10T09:32:53;96090.16;;;3.00;41.35
6389;BME280;3227;42.654;23.360;2023-02-10T09:35:22;96111.22;;;3.16;40.55
6389;BME280;3227;42.654;23.360;2023-02-10T09:37:49;96085.13;;;3.17;42.72
6389;BME280;3227;42.654;23.360;2023-02-10T09:40:17;96069.13;;;3.18;41.16
6389;BME280;3227;42.654;23.360;2023-02-10T09:42:59;96094.66;;;3.37;42.24
6389;BME280;3227;42.654;23.360;2023-02-10T09:45:35;96094.31;;;3.47;42.11
6389;BME280;3227;42.654;23.360;2023-02-10T09:48:17;96105.66;;;3.37;40.99
6389;BME280;3227;42.654;23.360;2023-02-10T09:50:55;96101.50;;;3.23;41.68
6389;BME280;3227;42.654;23.360;2023-02-10T09:53:28;96092.22;;;3.08;41.48
6389;BME280;3227;42.654;23.360;2023-02-10T09:55:57;96075.53;;;2.95;41.26
6389;BME280;3227;42.654;23.360;2023-02-10T09:58:30;96043.53;;;2.50;41.82
6389;BME280;3227;42.654;23.360;2023-02-10T10:01:02;96073.63;;;2.60;41.87
6389;BME280;3227;42.654;23.360;2023-02-10T10:03:37;96033.34;;;2.48;42.85
6389;BME280;3227;42.654;23.360;2023-02-10T10:06:21;96085.94;;;2.85;42.18
6389;BME280;3227;42.654;23.360;2023-02-10T10:08:56;96019.56;;;2.43;42.81
6389;BME280;3227;42.654;23.360;2023-02-10T10:11:33;96070.13;;;2.89;44.09
6389;BME280;3227;42.654;23.360;2023-02-10T10:14:02;96067.59;;;3.05;42.91
6389;BME280;3227;42.654;23.360;2023-02-10T10:16:42;96065.63;;;3.16;42.36
6389;BME280;3227;42.654;23.360;2023-02-10T10:19:18;96061.16;;;3.26;41.14
6389;BME280;3227;42.654;23.360;2023-02-10T10:22:03;95976.84;;;2.80;43.14
6389;BME280;3227;42.654;23.360;2023-02-10T10:24:42;96053.28;;;3.38;43.53
6389;BME280;3227;42.654;23.360;2023-02-10T10:27:23;96039.34;;;3.46;42.93
6389;BME280;3227;42.654;23.360;2023-02-10T10:29:53;96047.88;;;3.64;41.93
6389;BME280;3227;42.654;23.360;2023-02-10T10:32:32;96047.63;;;3.76;40.94
6389;BME280;3227;42.654;23.360;2023-02-10T10:35:02;96041.88;;;3.62;40.43
6389;BME280;3227;42.654;23.360;2023-02-10T10:37:34;96040.94;;;3.60;43.11
6389;BME280;3227;42.654;23.360;2023-02-10T10:40:04;96040.00;;;3.42;39.65
6389;BME280;3227;42.654;23.360;2023-02-10T10:42:39;96028.28;;;2.95;41.75
6389;BME280;3227;42.654;23.360;2023-02-10T10:45:13;96038.25;;;2.92;41.47
6389;BME280;3227;42.654;23.360;2023-02-10T10:47:44;96034.25;;;3.12;42.13
6389;BME280;3227;42.654;23.360;2023-02-10T10:50:14;96037.56;;;3.27;41.16
6389;BME280;3227;42.654;23.360;2023-02-10T10:52:43;96023.91;;;3.41;42.07
6389;BME280;3227;42.654;23.360;2023-02-10T10:55:15;96032.13;;;3.70;42.03
6389;BME280;3227;42.654;23.360;2023-02-10T10:58:00;96020.84;;;3.99;41.09
6389;BME280;3227;42.654;23.360;2023-02-10T11:00:28;96016.00;;;4.21;40.50
6389;BME280;3227;42.654;23.360;2023-02-10T11:02:58;96004.44;;;4.26;39.65
6389;BME280;3227;42.654;23.360;2023-02-10T11:05:28;96010.50;;;4.30;39.64
6389;BME280;3227;42.654;23.360;2023-02-10T11:07:57;95986.94;;;4.32;40.81
6389;BME280;3227;42.654;23.360;2023-02-10T11:10:28;96012.16;;;4.47;39.49
6389;BME280;3227;42.654;23.360;2023-02-10T11:12:57;96000.50;;;4.50;38.82
6389;BME280;3227;42.654;23.360;2023-02-10T11:15:37;96003.81;;;4.49;38.66
6389;BME280;3227;42.654;23.360;2023-02-10T11:18:29;96003.13;;;4.34;38.37
6389;BME280;3227;42.654;23.360;2023-02-10T11:20:57;95958.69;;;4.07;39.27
6389;BME280;3227;42.654;23.360;2023-02-10T11:23:27;95946.34;;;4.14;40.56
6389;BME280;3227;42.654;23.360;2023-02-10T11:26:00;95993.59;;;4.48;38.91
6389;BME280;3227;42.654;23.360;2023-02-10T11:28:30;95980.13;;;4.13;37.99
6389;BME280;3227;42.654;23.360;2023-02-10T11:31:00;95982.19;;;4.03;38.24
6389;BME280;3227;42.654;23.360;2023-02-10T11:33:30;95973.19;;;4.09;39.86
6389;BME280;3227;42.654;23.360;2023-02-10T11:36:02;95981.44;;;4.23;38.26
6389;BME280;3227;42.654;23.360;2023-02-10T11:38:31;95976.88;;;4.16;38.48
6389;BME280;3227;42.654;23.360;2023-02-10T11:41:00;95939.41;;;3.93;39.52
6389;BME280;3227;42.654;23.360;2023-02-10T11:43:31;95982.22;;;4.40;38.81
6389;BME280;3227;42.654;23.360;2023-02-10T11:46:03;95971.69;;;4.50;39.17
6389;BME280;3227;42.654;23.360;2023-02-10T11:48:30;95945.38;;;4.48;38.41
6389;BME280;3227;42.654;23.360;2023-02-10T11:51:03;95955.50;;;4.66;38.76
6389;BME280;3227;42.654;23.360;2023-02-10T11:53:34;95974.69;;;4.97;39.95
6389;BME280;3227;42.654;23.360;2023-02-10T11:56:06;95979.72;;;5.15;39.87
6389;BME280;3227;42.654;23.360;2023-02-10T11:58:45;95968.88;;;5.19;36.93
6389;BME280;3227;42.654;23.360;2023-02-10T12:01:45;95967.47;;;4.68;37.21
6389;BME280;3227;42.654;23.360;2023-02-10T12:04:29;95965.13;;;4.73;38.46
6389;BME280;3227;42.654;23.360;2023-02-10T12:07:07;95951.50;;;4.53;37.59
6389;BME280;3227;42.654;23.360;2023-02-10T12:09:48;95954.47;;;4.62;39.02
6389;BME280;3227;42.654;23.360;2023-02-10T12:12:28;95952.34;;;4.71;37.36
6389;BME280;3227;42.654;23.360;2023-02-10T12:15:07;95893.53;;;4.06;38.03
6389;BME280;3227;42.654;23.360;2023-02-10T12:17:46;95916.59;;;3.93;38.08
6389;BME280;3227;42.654;23.360;2023-02-10T12:20:31;95940.41;;;4.14;38.98
6389;BME280;3227;42.654;23.360;2023-02-10T12:23:15;95939.88;;;4.02;39.56
6389;BME280;3227;42.654;23.360;2023-02-10T12:25:49;95928.25;;;4.25;39.80
6389;BME280;3227;42.654;23.360;2023-02-10T12:28:27;95912.16;;;4.24;38.28
6389;BME280;3227;42.654;23.360;2023-02-10T12:31:01;95939.75;;;4.36;39.08
6389;BME280;3227;42.654;23.360;2023-02-10T12:33:43;95900.50;;;4.10;38.60
6389;BME280;3227;42.654;23.360;2023-02-10T12:36:17;95913.88;;;4.25;38.68
6389;BME280;3227;42.654;23.360;2023-02-10T12:38:56;95930.50;;;4.55;38.47
6389;BME280;3227;42.654;23.360;2023-02-10T12:41:36;95936.25;;;4.71;38.05
6389;BME280;3227;42.654;23.360;2023-02-10T12:44:16;95915.00;;;4.88;38.23
6389;BME280;3227;42.654;23.360;2023-02-10T12:46:56;95921.75;;;5.07;40.38
6389;BME280;3227;42.654;23.360;2023-02-10T12:49:37;95896.34;;;5.07;38.06
6389;BME280;3227;42.654;23.360;2023-02-10T12:52:11;95919.78;;;5.20;36.75
6389;BME280;3227;42.654;23.360;2023-02-10T12:54:45;95922.22;;;4.98;36.23
6389;BME280;3227;42.654;23.360;2023-02-10T12:57:18;95918.06;;;4.81;37.83
6389;BME280;3227;42.654;23.360;2023-02-10T12:59:55;95906.78;;;4.74;37.19
6389;BME280;3227;42.654;23.360;2023-02-10T13:02:28;95914.47;;;4.76;37.52
6389;BME280;3227;42.654;23.360;2023-02-10T13:05:02;95810.94;;;4.11;38.02
6389;BME280;3227;42.654;23.360;2023-02-10T13:07:36;95928.00;;;4.94;38.57
6389;BME280;3227;42.654;23.360;2023-02-10T13:10:16;95924.09;;;4.83;37.09
6389;BME280;3227;42.654;23.360;2023-02-10T13:12:47;95920.63;;;4.81;36.53
6389;BME280;3227;42.654;23.360;2023-02-10T13:15:21;95916.50;;;4.83;36.73
6389;BME280;3227;42.654;23.360;2023-02-10T13:17:50;95921.56;;;5.02;36.42
6389;BME280;3227;42.654;23.360;2023-02-10T13:20:29;95915.56;;;5.21;36.52
6389;BME280;3227;42.654;23.360;2023-02-10T13:23:06;95918.09;;;5.40;37.76
6389;BME280;3227;42.654;23.360;2023-02-10T13:25:46;95922.06;;;5.54;37.12
6389;BME280;3227;42.654;23.360;2023-02-10T13:28:22;95915.00;;;5.68;36.78
6389;BME280;3227;42.654;23.360;2023-02-10T13:31:08;95917.03;;;5.35;35.13
6389;BME280;3227;42.654;23.360;2023-02-10T13:33:47;95920.59;;;5.19;35.47
6389;BME280;3227;42.654;23.360;2023-02-10T13:36:20;95906.81;;;5.33;35.61
6389;BME280;3227;42.654;23.360;2023-02-10T13:38:58;95846.78;;;5.16;35.38